KCMA

Camarillo Airport

Airport
ICAO code
KCMA
Summary
ICAO Region
EUR
ICAO Territory
Location

Camarillo, California

Serving
Oxnard
Elevation
77 ft
Coordinates
34° 12' 44" N , 119° 5' 24" W
KCC
Metar
KCMA 040755Z AUTO 00000KT 10SM CLR 11/07 A3006 RMK AO2 SLP187 T01060067 401720100

Description

Camarillo Airport is a public airport located 3 nm west of the central business district of Camarillo, a city in Ventura County, California, United States.

 

Airport map

Aerial View

SKYbrary Partners:

Safety knowledge contributed by: